createdAt,value
2022-11-25T00:02:16.496Z,76.82
2022-11-25T00:07:18.812Z,76.56
2022-11-25T00:12:20.982Z,76.69
2022-11-25T00:17:23.285Z,76.66
2022-11-25T00:22:25.446Z,76.61
2022-11-25T00:27:27.645Z,76.70
2022-11-25T00:32:29.816Z,76.83
2022-11-25T00:37:32.777Z,76.68
2022-11-25T00:42:53.358Z,76.69
2022-11-25T00:47:55.585Z,76.61
2022-11-25T00:52:57.740Z,76.82
2022-11-25T00:57:59.938Z,76.36
2022-11-25T01:03:02.151Z,76.65
2022-11-25T01:08:04.558Z,76.77
2022-11-25T01:13:06.794Z,76.98
2022-11-25T01:18:11.056Z,76.86
2022-11-25T01:23:13.233Z,76.95
2022-11-25T01:28:15.458Z,77.08
2022-11-25T01:33:17.754Z,76.94
2022-11-25T01:38:19.971Z,76.89
2022-11-25T01:43:22.192Z,76.72
2022-11-25T01:48:45.558Z,77.31
2022-11-25T01:53:50.360Z,77.02
2022-11-25T01:58:52.596Z,76.61
2022-11-25T02:03:56.241Z,77.05
2022-11-25T02:09:18.373Z,77.05
2022-11-25T02:14:21.446Z,76.92
2022-11-25T02:19:43.777Z,77.09
2022-11-25T02:24:47.259Z,77.25
2022-11-25T02:29:50.404Z,77.27
2022-11-25T02:34:52.949Z,77.25
2022-11-25T02:39:55.355Z,77.51
2022-11-25T02:44:57.639Z,77.16
2022-11-25T02:49:59.819Z,77.51
2022-11-25T02:55:02.092Z,77.46
2022-11-25T03:00:05.886Z,77.35
2022-11-25T03:05:08.603Z,77.64
2022-11-25T03:10:11.192Z,77.25
2022-11-25T03:15:14.459Z,77.71
2022-11-25T03:20:16.948Z,77.57
2022-11-25T03:25:19.424Z,77.65
2022-11-25T03:30:26.368Z,77.68
2022-11-25T03:35:32.517Z,77.76
2022-11-25T03:40:34.982Z,77.86
2022-11-25T03:45:37.357Z,77.63
2022-11-25T03:50:43.112Z,77.48
2022-11-25T03:55:48.415Z,78.00
2022-11-25T04:00:53.067Z,77.80
2022-11-25T04:05:55.906Z,77.62
2022-11-25T04:10:58.286Z,77.64
2022-11-25T04:16:04.518Z,77.59
2022-11-25T04:21:06.989Z,77.35
2022-11-25T04:26:09.262Z,77.65
2022-11-25T04:31:15.325Z,77.39
2022-11-25T04:36:19.455Z,77.72
2022-11-25T04:41:21.945Z,77.36
2022-11-25T04:46:25.787Z,77.58
2022-11-25T04:51:30.088Z,77.50
2022-11-25T04:56:36.384Z,77.58
2022-11-25T05:01:38.858Z,77.39
2022-11-25T05:07:07.314Z,77.33
2022-11-25T05:12:13.284Z,76.86
2022-11-25T05:17:18.769Z,77.28
2022-11-25T05:22:24.132Z,77.05
2022-11-25T05:27:27.991Z,77.15
2022-11-25T05:32:33.236Z,77.09
2022-11-25T05:37:38.859Z,77.01
2022-11-25T05:42:42.006Z,77.40
2022-11-25T05:47:44.821Z,77.13
2022-11-25T05:52:50.948Z,76.97
2022-11-25T05:57:53.450Z,77.33
2022-11-25T06:02:56.935Z,77.14
2022-11-25T06:07:59.388Z,77.09
2022-11-25T06:13:02.346Z,77.24
2022-11-25T06:18:04.727Z,76.91
2022-11-25T06:23:09.860Z,77.09
2022-11-25T06:28:13.729Z,76.95
2022-11-25T06:33:20.274Z,77.16
2022-11-25T06:38:23.999Z,77.13
2022-11-25T06:43:26.239Z,76.86
2022-11-25T06:48:28.832Z,76.93
2022-11-25T06:53:32.350Z,76.77
2022-11-25T06:58:36.560Z,77.02
2022-11-25T07:03:39.065Z,77.01
2022-11-25T07:08:42.369Z,76.93
2022-11-25T07:13:45.133Z,76.84
2022-11-25T07:18:47.529Z,76.75
2022-11-25T07:23:50.431Z,76.59
2022-11-25T07:28:53.973Z,76.42
2022-11-25T07:33:58.982Z,76.65
2022-11-25T07:39:04.178Z,76.40
2022-11-25T07:44:07.876Z,76.66
2022-11-25T07:49:25.714Z,76.66
2022-11-25T07:54:28.207Z,76.86
2022-11-25T07:59:30.604Z,76.46
2022-11-25T08:04:32.975Z,76.62
2022-11-25T08:09:36.092Z,76.47
2022-11-25T08:14:38.540Z,76.31
2022-11-25T08:19:40.753Z,76.61
2022-11-25T08:24:42.987Z,76.36
2022-11-25T08:29:45.292Z,76.29
2022-11-25T08:34:47.566Z,75.92
2022-11-25T08:39:53.251Z,76.10
2022-11-25T08:44:56.597Z,76.30
2022-11-25T08:49:58.883Z,76.21
2022-11-25T08:55:01.101Z,76.27
2022-11-25T09:00:06.180Z,76.47
2022-11-25T09:05:08.855Z,76.55
2022-11-25T09:10:15.618Z,76.44
2022-11-25T09:15:17.902Z,76.30
2022-11-25T09:20:20.173Z,76.41
2022-11-25T09:25:22.907Z,76.39
2022-11-25T09:30:25.755Z,76.25
2022-11-25T09:35:28.101Z,76.70
2022-11-25T09:40:40.419Z,76.70
2022-11-25T09:46:06.173Z,76.84
2022-11-25T09:51:20.977Z,76.71
2022-11-25T09:56:33.141Z,76.33
2022-11-25T10:01:44.700Z,76.71
2022-11-25T10:06:55.388Z,76.75
2022-11-25T10:12:11.841Z,76.66
2022-11-25T10:17:27.875Z,76.88
2022-11-25T10:22:52.649Z,76.70
2022-11-25T10:28:15.860Z,76.91
2022-11-25T10:33:51.286Z,76.96
2022-11-25T10:39:15.939Z,76.69
2022-11-25T10:44:29.523Z,76.56
2022-11-25T10:49:40.850Z,76.76
2022-11-25T10:54:59.569Z,76.88
2022-11-25T11:00:04.951Z,76.87
2022-11-25T11:05:10.548Z,76.86
2022-11-25T11:10:21.320Z,77.00
2022-11-25T11:15:24.718Z,76.94
2022-11-25T11:20:31.674Z,76.88
2022-11-25T11:25:36.323Z,76.88
2022-11-25T11:31:11.444Z,77.05
2022-11-25T11:36:32.623Z,76.87
2022-11-25T11:41:41.326Z,76.86
2022-11-25T11:46:55.129Z,77.06
2022-11-25T11:52:26.807Z,76.93
2022-11-25T11:58:15.551Z,76.92
2022-11-25T12:03:22.435Z,77.02
2022-11-25T12:08:50.066Z,76.68
2022-11-25T12:14:01.372Z,76.75
2022-11-25T12:19:12.037Z,76.88
2022-11-25T12:24:17.117Z,76.64
2022-11-25T12:29:37.470Z,76.88
2022-11-25T12:34:44.890Z,76.78
2022-11-25T12:40:04.092Z,76.65
2022-11-25T12:45:12.854Z,76.53
2022-11-25T12:50:18.389Z,76.67
2022-11-25T12:55:25.267Z,76.78
2022-11-25T13:00:46.849Z,76.78
2022-11-25T13:06:17.023Z,76.65
2022-11-25T13:11:37.768Z,76.67
2022-11-25T13:16:42.027Z,76.82
2022-11-25T13:22:24.662Z,76.88
2022-11-25T13:27:36.300Z,76.87
2022-11-25T13:32:40.689Z,76.93
2022-11-25T13:37:45.986Z,76.61
2022-11-25T13:42:48.458Z,76.87
2022-11-25T13:47:52.824Z,76.88
2022-11-25T13:53:06.238Z,77.06
2022-11-25T13:58:11.671Z,77.06
2022-11-25T14:03:23.255Z,77.03
2022-11-25T14:08:50.360Z,76.87
2022-11-25T14:14:16.592Z,77.00
2022-11-25T14:19:52.483Z,76.88
2022-11-25T14:25:00.217Z,76.79
2022-11-25T14:30:06.956Z,77.14
2022-11-25T14:35:20.019Z,76.91
2022-11-25T14:40:27.223Z,76.88
2022-11-25T14:45:33.764Z,77.12
2022-11-25T14:50:37.133Z,76.68
2022-11-25T14:55:40.052Z,76.95
2022-11-25T15:00:58.431Z,76.81
2022-11-25T15:06:06.585Z,76.90
2022-11-25T15:11:18.274Z,77.08
2022-11-25T15:16:23.372Z,76.83
2022-11-25T15:22:07.067Z,77.29
2022-11-25T15:27:03.275Z,77.29
2022-11-25T15:32:05.703Z,77.24
2022-11-25T15:37:11.592Z,77.30
2022-11-25T15:42:23.462Z,77.08
2022-11-25T15:47:30.828Z,76.99
2022-11-25T15:52:38.098Z,76.95
2022-11-25T15:57:41.951Z,77.15
2022-11-25T16:02:44.237Z,77.09
2022-11-25T16:07:52.857Z,77.16
2022-11-25T16:13:23.283Z,77.55
2022-11-25T16:18:42.346Z,77.50
2022-11-25T16:23:48.633Z,77.62
2022-11-25T16:28:54.063Z,77.62
2022-11-25T16:34:01.246Z,77.53
2022-11-25T16:39:04.291Z,77.66
2022-11-25T16:44:18.683Z,77.74
2022-11-25T16:49:22.570Z,77.46
2022-11-25T16:54:24.870Z,77.55
2022-11-25T16:59:34.183Z,77.38
2022-11-25T17:04:36.521Z,77.54
2022-11-25T17:09:39.274Z,77.72
2022-11-25T17:14:42.882Z,77.56
2022-11-25T17:19:46.986Z,77.13
2022-11-25T17:24:51.179Z,77.54
2022-11-25T17:29:54.335Z,77.39
2022-11-25T17:34:58.888Z,77.41
2022-11-25T17:40:01.387Z,77.15
2022-11-25T17:45:14.250Z,77.44
2022-11-25T17:50:26.033Z,77.60
2022-11-25T17:55:28.500Z,77.54
2022-11-25T18:00:35.861Z,77.50
2022-11-25T18:05:38.211Z,77.53
2022-11-25T18:10:40.569Z,77.42
2022-11-25T18:15:44.382Z,77.75
2022-11-25T18:20:46.943Z,77.80
2022-11-25T18:25:49.356Z,77.79
2022-11-25T18:30:54.578Z,77.76
2022-11-25T18:35:57.088Z,77.42
2022-11-25T18:41:00.898Z,77.76
2022-11-25T18:46:03.343Z,77.64
2022-11-25T18:51:06.341Z,77.85
2022-11-25T18:56:17.431Z,77.78
2022-11-25T19:01:23.239Z,77.87
2022-11-25T19:06:28.330Z,77.45
2022-11-25T19:11:39.032Z,77.76
2022-11-25T19:16:41.926Z,77.87
2022-11-25T19:21:44.239Z,77.59
2022-11-25T19:26:51.269Z,77.61
2022-11-25T19:31:54.379Z,77.44
2022-11-25T19:36:56.694Z,77.84
2022-11-25T19:41:59.035Z,77.56
2022-11-25T19:47:15.380Z,77.60
2022-11-25T19:52:23.185Z,77.42
2022-11-25T19:57:26.033Z,77.81
2022-11-25T20:02:29.604Z,77.68
2022-11-25T20:07:32.510Z,77.59
2022-11-25T20:12:34.974Z,77.45
2022-11-25T20:17:37.879Z,77.53
2022-11-25T20:22:44.394Z,77.15
2022-11-25T20:27:46.869Z,77.70
2022-11-25T20:32:49.444Z,77.50
2022-11-25T20:37:54.067Z,77.19
2022-11-25T20:42:58.191Z,77.39
2022-11-25T20:48:00.521Z,77.46
2022-11-25T20:53:03.499Z,77.67
2022-11-25T20:58:24.616Z,77.81
2022-11-25T21:03:27.345Z,77.61
2022-11-25T21:08:31.069Z,77.16
2022-11-25T21:13:33.393Z,78.02
2022-11-25T21:18:35.765Z,77.75
2022-11-25T21:23:38.326Z,77.79
2022-11-25T21:28:43.201Z,77.81
2022-11-25T21:33:46.612Z,77.62
2022-11-25T21:38:50.923Z,77.62
2022-11-25T21:43:53.194Z,77.31
2022-11-25T21:48:55.438Z,77.75
2022-11-25T21:53:57.687Z,77.53
2022-11-25T21:59:01.170Z,77.93
2022-11-25T22:04:03.516Z,77.39
2022-11-25T22:09:05.803Z,77.53
2022-11-25T22:14:37.363Z,77.83
2022-11-25T22:19:39.888Z,77.79
2022-11-25T22:24:42.423Z,77.90
2022-11-25T22:29:44.882Z,77.61
2022-11-25T22:34:47.121Z,77.77
2022-11-25T22:39:49.590Z,77.96
2022-11-25T22:44:52.534Z,77.51
2022-11-25T22:49:54.890Z,77.93
2022-11-25T22:55:15.124Z,78.00
2022-11-25T23:00:29.702Z,78.04
2022-11-25T23:05:34.476Z,77.95
2022-11-25T23:10:36.727Z,78.23
2022-11-25T23:15:42.058Z,77.89
2022-11-25T23:20:44.463Z,77.87
2022-11-25T23:25:47.652Z,78.12
2022-11-25T23:30:55.371Z,77.65
2022-11-25T23:35:59.133Z,77.94
2022-11-25T23:41:01.390Z,78.02
2022-11-25T23:46:03.883Z,78.06
2022-11-25T23:51:06.827Z,78.00
2022-11-25T23:56:09.034Z,78.01
